Time;durP1;ratioP1;P1;durP2;ratioP2;P2;SDS_P1;SDS_P2;PMS_P1;PMS_P2;Temp;Humidity;BMP_temperature;BMP_pressure;BME280_temperature;BME280_humidity;BME280_pressure;Samples;Min_cycle;Max_cycle;Signal;HPM_P1;HPM_P2
2022/01/23 00:00:15;;;;;;;11.70;7.73;;;;;;;;;;5053221;28;20956;-61
2022/01/23 00:02:41;;;;;;;10.97;7.40;;;;;;;;;;5054264;28;20471;-62
2022/01/23 00:05:08;;;;;;;9.80;7.60;;;;;;;;;;5054343;28;20469;-62
2022/01/23 00:07:34;;;;;;;8.07;7.20;;;;;;;;;;5053872;28;20475;-62
2022/01/23 00:10:02;;;;;;;9.17;7.43;;;;;;;;;;5054207;28;21129;-61
2022/01/23 00:12:32;;;;;;;11.60;8.07;;;;;;;;;;5052320;28;20482;-60
2022/01/23 00:17:43;;;;;;;9.47;7.53;;;;;;;;;;5054057;28;20531;-61
2022/01/23 00:20:11;;;;;;;9.37;7.40;;;;;;;;;;5054010;28;20200;-60
2022/01/23 00:22:42;;;;;;;10.87;7.87;;;;;;;;;;5053923;28;20265;-59
2022/01/23 00:30:41;;;;;;;11.47;7.60;;;;;;;;;;5053786;28;20526;-61
2022/01/23 00:33:08;;;;;;;9.60;7.47;;;;;;;;;;5053876;28;20443;-62
2022/01/23 00:35:35;;;;;;;7.33;6.40;;;;;;;;;;5051846;28;20469;-60
2022/01/23 00:38:02;;;;;;;7.73;6.63;;;;;;;;;;5053696;28;20435;-58
2022/01/23 00:40:30;;;;;;;9.80;7.47;;;;;;;;;;5053705;28;20265;-60
2022/01/23 00:42:58;;;;;;;10.53;7.67;;;;;;;;;;5053926;28;20522;-59
2022/01/23 00:45:33;;;;;;;9.00;7.20;;;;;;;;;;5053659;28;20482;-60
2022/01/23 00:48:04;;;;;;;9.03;7.33;;;;;;;;;;5053814;28;20531;-58
2022/01/23 00:50:31;;;;;;;10.83;8.77;;;;;;;;;;5053788;28;20439;-59
2022/01/23 00:52:57;;;;;;;11.40;8.40;;;;;;;;;;5053707;28;20435;-58
2022/01/23 00:55:23;;;;;;;12.03;8.67;;;;;;;;;;5053459;28;20476;-59
2022/01/23 00:57:50;;;;;;;10.80;8.27;;;;;;;;;;5053543;28;20447;-59
2022/01/23 01:00:16;;;;;;;12.93;8.83;;;;;;;;;;5053396;28;20441;-59
2022/01/23 01:02:42;;;;;;;9.30;8.40;;;;;;;;;;5053393;28;20462;-59
2022/01/23 01:05:09;;;;;;;12.53;9.20;;;;;;;;;;5053260;28;20435;-59
2022/01/23 01:07:35;;;;;;;13.93;9.53;;;;;;;;;;5053232;28;20220;-60
2022/01/23 01:10:08;;;;;;;10.90;9.53;;;;;;;;;;5052974;28;20530;-60
2022/01/23 01:12:42;;;;;;;11.57;9.40;;;;;;;;;;5052994;28;20561;-59
2022/01/23 01:15:28;;;;;;;12.83;9.90;;;;;;;;;;5053187;28;20484;-60
2022/01/23 01:31:22;;;;;;;12.37;9.47;;;;;;;;;;5053047;28;20426;-59
2022/01/23 01:33:54;;;;;;;10.50;9.07;;;;;;;;;;5052854;28;20565;-59
2022/01/23 01:38:49;;;;;;;10.83;9.00;;;;;;;;;;5052677;28;20500;-60
2022/01/23 01:41:18;;;;;;;11.43;9.17;;;;;;;;;;5052459;28;20475;-60
2022/01/23 01:43:44;;;;;;;11.00;8.80;;;;;;;;;;5052495;28;20450;-60
2022/01/23 01:46:11;;;;;;;13.13;9.53;;;;;;;;;;5052586;28;20485;-59
2022/01/23 01:48:38;;;;;;;10.53;9.37;;;;;;;;;;5052205;28;21001;-60
2022/01/23 01:51:08;;;;;;;11.30;9.40;;;;;;;;;;5052464;28;20441;-60
2022/01/23 01:53:34;;;;;;;11.70;8.83;;;;;;;;;;5052231;28;20988;-60
2022/01/23 01:56:01;;;;;;;10.97;9.10;;;;;;;;;;5052323;28;20439;-59
2022/01/23 02:02:40;;;;;;;9.77;8.27;;;;;;;;;;5052488;28;20745;-59
2022/01/23 02:09:20;;;;;;;12.10;9.13;;;;;;;;;;5052345;28;20532;-59
2022/01/23 02:14:42;;;;;;;12.47;9.47;;;;;;;;;;5052000;28;20455;-59
2022/01/23 02:17:19;;;;;;;10.47;8.90;;;;;;;;;;5052308;28;20812;-59
2022/01/23 02:23:02;;;;;;;11.50;9.30;;;;;;;;;;5051319;28;20493;-59
2022/01/23 02:55:15;;;;;;;12.20;9.43;;;;;;;;;;5051670;28;20466;-59
2022/01/23 03:00:17;;;;;;;9.77;8.77;;;;;;;;;;5051722;28;20473;-59
2022/01/23 03:02:47;;;;;;;14.40;9.30;;;;;;;;;;5051460;28;20570;-60
2022/01/23 03:05:23;;;;;;;12.27;9.30;;;;;;;;;;5051368;28;20867;-59
2022/01/23 03:07:59;;;;;;;10.03;9.03;;;;;;;;;;5051222;28;20998;-58
2022/01/23 03:10:39;;;;;;;11.50;10.10;;;;;;;;;;5051383;28;20946;-60
2022/01/23 03:24:18;;;;;;;12.03;10.73;;;;;;;;;;5051423;28;20543;-60
2022/01/23 03:32:28;;;;;;;14.80;11.43;;;;;;;;;;5051561;28;20549;-59
2022/01/23 03:34:54;;;;;;;12.30;10.60;;;;;;;;;;5054166;28;20517;-59
2022/01/23 03:37:20;;;;;;;11.73;10.20;;;;;;;;;;5055203;28;21010;-60
2022/01/23 03:39:47;;;;;;;14.40;10.67;;;;;;;;;;5054918;28;20291;-59
2022/01/23 03:42:14;;;;;;;12.10;10.83;;;;;;;;;;5054933;28;20515;-59
2022/01/23 03:44:50;;;;;;;10.53;9.43;;;;;;;;;;5054797;28;20443;-59
2022/01/23 03:47:36;;;;;;;14.43;9.90;;;;;;;;;;5054689;28;20430;-58
2022/01/23 03:50:02;;;;;;;11.73;9.30;;;;;;;;;;5054813;28;20430;-59
2022/01/23 03:52:28;;;;;;;12.50;9.67;;;;;;;;;;5054708;28;20460;-59
2022/01/23 03:54:54;;;;;;;9.80;8.33;;;;;;;;;;5054313;28;20935;-59
2022/01/23 03:57:21;;;;;;;9.67;8.23;;;;;;;;;;5054693;28;20220;-59
2022/01/23 03:59:47;;;;;;;9.73;8.73;;;;;;;;;;5054455;28;20947;-59
2022/01/23 04:02:14;;;;;;;10.00;7.27;;;;;;;;;;5054451;28;20489;-59
2022/01/23 04:04:41;;;;;;;9.57;7.40;;;;;;;;;;5054317;28;20423;-60
2022/01/23 04:07:08;;;;;;;9.37;6.93;;;;;;;;;;5054406;28;20974;-60
2022/01/23 04:09:35;;;;;;;8.80;7.03;;;;;;;;;;5053998;28;20450;-60
2022/01/23 04:12:02;;;;;;;8.27;7.03;;;;;;;;;;5054283;28;20478;-59
2022/01/23 04:14:31;;;;;;;8.63;7.47;;;;;;;;;;5054084;28;20831;-59
2022/01/23 04:17:39;;;;;;;10.67;6.90;;;;;;;;;;5054388;28;20438;-58
2022/01/23 04:47:37;;;;;;;12.70;9.90;;;;;;;;;;5053063;28;20853;-58
2022/01/23 05:00:50;;;;;;;13.37;10.20;;;;;;;;;;5053548;28;20414;-60
2022/01/23 05:06:05;;;;;;;11.37;10.17;;;;;;;;;;5050953;28;20965;-59
2022/01/23 05:08:34;;;;;;;11.30;9.90;;;;;;;;;;5052996;28;20994;-58
2022/01/23 05:11:00;;;;;;;12.17;10.97;;;;;;;;;;5052929;28;20490;-59
2022/01/23 05:13:26;;;;;;;11.57;10.37;;;;;;;;;;5053190;28;20439;-59
2022/01/23 05:15:52;;;;;;;15.53;11.07;;;;;;;;;;5053000;28;20450;-58
2022/01/23 05:18:20;;;;;;;13.33;11.27;;;;;;;;;;5052887;28;20438;-59
2022/01/23 05:20:48;;;;;;;14.73;12.47;;;;;;;;;;5053061;28;20447;-60
2022/01/23 05:23:14;;;;;;;15.67;12.03;;;;;;;;;;5053020;28;20442;-58
2022/01/23 05:25:41;;;;;;;13.83;12.30;;;;;;;;;;5052778;28;20485;-60
2022/01/23 05:28:07;;;;;;;13.63;12.33;;;;;;;;;;5052710;28;20483;-59
2022/01/23 05:30:35;;;;;;;15.13;12.20;;;;;;;;;;5052423;28;20529;-59
2022/01/23 05:33:01;;;;;;;13.77;12.23;;;;;;;;;;5052611;28;20668;-59
2022/01/23 05:35:30;;;;;;;14.83;13.23;;;;;;;;;;5052716;28;20438;-59
2022/01/23 05:37:56;;;;;;;18.03;13.70;;;;;;;;;;5052626;28;20727;-60
2022/01/23 05:40:25;;;;;;;18.03;13.40;;;;;;;;;;5052594;28;20526;-60
2022/01/23 05:42:52;;;;;;;15.00;13.40;;;;;;;;;;5052377;28;20278;-59
2022/01/23 05:45:18;;;;;;;16.07;13.43;;;;;;;;;;5052431;28;20632;-60
2022/01/23 05:47:44;;;;;;;15.53;12.87;;;;;;;;;;5052295;28;20474;-58
2022/01/23 05:50:10;;;;;;;15.17;13.27;;;;;;;;;;5052499;28;20442;-59
2022/01/23 05:52:37;;;;;;;14.60;13.10;;;;;;;;;;5052203;28;20488;-60
2022/01/23 05:55:04;;;;;;;17.20;13.13;;;;;;;;;;5052236;28;20435;-60
2022/01/23 05:57:30;;;;;;;14.50;12.87;;;;;;;;;;5051265;28;20435;-59
2022/01/23 05:59:56;;;;;;;14.47;12.97;;;;;;;;;;5052182;28;20885;-59
2022/01/23 06:02:22;;;;;;;15.37;12.50;;;;;;;;;;5052094;28;20206;-59
2022/01/23 06:04:48;;;;;;;16.17;13.50;;;;;;;;;;5051996;28;20504;-59
2022/01/23 06:07:14;;;;;;;14.20;12.70;;;;;;;;;;5052060;28;20966;-59
2022/01/23 06:09:42;;;;;;;13.00;11.70;;;;;;;;;;5051819;28;20231;-58
2022/01/23 06:12:08;;;;;;;15.27;11.73;;;;;;;;;;5052052;28;20246;-58
2022/01/23 06:14:34;;;;;;;14.73;12.00;;;;;;;;;;5051710;28;20488;-58
2022/01/23 06:17:00;;;;;;;12.63;10.27;;;;;;;;;;5051565;28;20447;-59
2022/01/23 06:19:26;;;;;;;11.67;10.30;;;;;;;;;;5051813;28;20198;-59
2022/01/23 06:21:52;;;;;;;11.57;10.27;;;;;;;;;;5051598;28;20442;-59
2022/01/23 06:24:26;;;;;;;11.30;10.07;;;;;;;;;;5051614;28;20660;-60
2022/01/23 06:26:54;;;;;;;14.33;10.73;;;;;;;;;;5051717;28;20803;-59
2022/01/23 06:29:21;;;;;;;13.90;10.83;;;;;;;;;;5051604;28;20913;-59
2022/01/23 06:31:48;;;;;;;17.47;10.57;;;;;;;;;;5051286;28;20950;-59
2022/01/23 06:34:15;;;;;;;10.83;9.73;;;;;;;;;;5051942;28;20442;-60
2022/01/23 06:36:41;;;;;;;12.53;9.57;;;;;;;;;;5051657;28;20854;-59
2022/01/23 06:39:08;;;;;;;12.17;10.30;;;;;;;;;;5051634;28;20453;-59
2022/01/23 06:41:34;;;;;;;11.73;9.83;;;;;;;;;;5051552;28;20439;-58
2022/01/23 06:44:02;;;;;;;11.83;10.30;;;;;;;;;;5051988;28;20538;-59
2022/01/23 06:46:28;;;;;;;13.20;9.70;;;;;;;;;;5051719;28;20501;-59
2022/01/23 06:48:54;;;;;;;11.07;9.63;;;;;;;;;;5051501;28;20481;-59
2022/01/23 06:51:20;;;;;;;12.87;10.67;;;;;;;;;;5051380;28;20434;-59
2022/01/23 06:53:46;;;;;;;13.07;9.70;;;;;;;;;;5051383;28;20196;-58
2022/01/23 06:56:12;;;;;;;11.70;10.50;;;;;;;;;;5051630;28;20192;-59
2022/01/23 06:58:39;;;;;;;12.27;10.97;;;;;;;;;;5051011;28;20443;-59
2022/01/23 07:01:07;;;;;;;17.23;11.27;;;;;;;;;;5051588;28;20812;-59
2022/01/23 07:03:33;;;;;;;14.17;11.23;;;;;;;;;;5051257;28;20458;-59
2022/01/23 07:05:59;;;;;;;15.73;11.43;;;;;;;;;;5051794;28;20431;-58
2022/01/23 07:08:25;;;;;;;13.40;11.63;;;;;;;;;;5051453;28;21052;-59
2022/01/23 07:10:51;;;;;;;16.93;11.47;;;;;;;;;;5054987;28;20452;-58
2022/01/23 07:13:17;;;;;;;12.77;11.47;;;;;;;;;;5055300;28;20258;-60
2022/01/23 07:15:43;;;;;;;16.83;12.53;;;;;;;;;;5055324;28;20204;-58
2022/01/23 07:18:10;;;;;;;15.83;12.60;;;;;;;;;;5054865;28;20433;-59
2022/01/23 07:20:36;;;;;;;13.80;12.37;;;;;;;;;;5055075;28;20449;-59
2022/01/23 07:23:03;;;;;;;15.97;11.67;;;;;;;;;;5054964;28;20430;-58
2022/01/23 07:25:29;;;;;;;14.60;13.00;;;;;;;;;;5054977;28;20243;-59
2022/01/23 07:27:58;;;;;;;15.13;12.03;;;;;;;;;;5054917;28;20514;-58
2022/01/23 07:32:53;;;;;;;15.63;12.63;;;;;;;;;;5054817;28;20436;-59
2022/01/23 07:35:20;;;;;;;19.00;13.90;;;;;;;;;;5054801;28;20526;-59
2022/01/23 07:37:46;;;;;;;16.40;13.73;;;;;;;;;;5054680;28;20257;-59
2022/01/23 07:40:13;;;;;;;14.07;12.40;;;;;;;;;;5054730;28;20943;-60
2022/01/23 07:42:39;;;;;;;17.73;14.20;;;;;;;;;;5054562;28;20435;-62
2022/01/23 07:45:06;;;;;;;16.63;14.30;;;;;;;;;;5054600;28;20439;-60
2022/01/23 07:47:32;;;;;;;16.00;13.87;;;;;;;;;;5054458;28;20684;-59
2022/01/23 07:49:58;;;;;;;16.87;14.47;;;;;;;;;;5047473;28;20431;-56
2022/01/23 07:52:29;;;;;;;16.20;13.93;;;;;;;;;;5054594;28;20438;-60
2022/01/23 07:54:55;;;;;;;17.60;13.63;;;;;;;;;;5052444;28;20492;-60
2022/01/23 07:57:21;;;;;;;17.30;14.90;;;;;;;;;;5054454;28;20435;-60
2022/01/23 07:59:47;;;;;;;16.43;14.43;;;;;;;;;;5054504;28;20845;-61
2022/01/23 08:02:13;;;;;;;16.23;14.27;;;;;;;;;;5054558;28;20196;-62
2022/01/23 08:04:40;;;;;;;17.13;14.00;;;;;;;;;;5054398;28;20880;-61
2022/01/23 08:07:22;;;;;;;18.83;15.43;;;;;;;;;;5054579;28;20439;-60
2022/01/23 08:09:49;;;;;;;16.70;14.90;;;;;;;;;;5051957;28;20569;-61
2022/01/23 08:12:17;;;;;;;18.17;14.90;;;;;;;;;;5052932;28;20466;-60
2022/01/23 08:14:43;;;;;;;17.63;14.93;;;;;;;;;;5053988;28;21026;-60
2022/01/23 08:17:09;;;;;;;19.63;16.17;;;;;;;;;;5054025;28;20478;-60
2022/01/23 08:19:35;;;;;;;18.00;15.43;;;;;;;;;;5053506;28;20442;-60
2022/01/23 08:22:01;;;;;;;18.80;15.20;;;;;;;;;;5053228;28;20587;-61
2022/01/23 08:24:27;;;;;;;17.13;14.90;;;;;;;;;;5053834;28;20205;-61
2022/01/23 08:26:54;;;;;;;17.93;14.77;;;;;;;;;;5053591;28;20665;-60
2022/01/23 08:29:20;;;;;;;16.83;14.37;;;;;;;;;;5053752;28;20298;-61
2022/01/23 08:31:47;;;;;;;17.60;15.50;;;;;;;;;;5053516;28;20492;-60
2022/01/23 08:34:14;;;;;;;16.27;14.00;;;;;;;;;;5053751;28;20535;-60
2022/01/23 08:36:40;;;;;;;16.63;14.07;;;;;;;;;;5053604;28;20458;-60
2022/01/23 08:39:06;;;;;;;19.00;15.30;;;;;;;;;;5053558;28;20431;-60
2022/01/23 08:41:50;;;;;;;18.83;15.10;;;;;;;;;;5053799;28;20478;-61
2022/01/23 08:44:18;;;;;;;17.10;15.37;;;;;;;;;;5053986;28;20438;-61
2022/01/23 08:46:44;;;;;;;17.37;15.00;;;;;;;;;;5053579;28;20435;-60
2022/01/23 08:49:10;;;;;;;15.03;13.37;;;;;;;;;;5053372;28;20524;-60
2022/01/23 08:51:36;;;;;;;16.90;13.50;;;;;;;;;;5053211;28;20204;-61
2022/01/23 08:54:03;;;;;;;18.00;14.70;;;;;;;;;;5053079;28;20446;-60
2022/01/23 08:56:29;;;;;;;18.23;14.90;;;;;;;;;;5053271;28;20805;-61
2022/01/23 08:58:55;;;;;;;19.30;14.87;;;;;;;;;;5053087;28;20581;-61
2022/01/23 09:01:23;;;;;;;17.57;14.77;;;;;;;;;;5053079;28;20431;-61
2022/01/23 09:03:49;;;;;;;17.87;15.97;;;;;;;;;;5052737;28;20500;-61
2022/01/23 09:06:15;;;;;;;19.03;16.67;;;;;;;;;;5053003;28;20877;-62
2022/01/23 09:08:41;;;;;;;20.67;16.70;;;;;;;;;;5052824;28;20224;-60
2022/01/23 09:11:24;;;;;;;18.23;16.33;;;;;;;;;;5052827;28;20493;-60
2022/01/23 09:16:16;;;;;;;18.97;16.70;;;;;;;;;;5052892;28;20473;-61
2022/01/23 09:18:44;;;;;;;23.03;17.67;;;;;;;;;;5052966;28;20439;-61
2022/01/23 09:21:11;;;;;;;20.40;16.77;;;;;;;;;;5052929;28;20223;-60
2022/01/23 09:23:37;;;;;;;18.47;16.57;;;;;;;;;;5052554;28;20201;-60
2022/01/23 09:26:07;;;;;;;17.80;15.60;;;;;;;;;;5052482;28;20439;-61
2022/01/23 09:28:33;;;;;;;20.20;16.53;;;;;;;;;;5052342;28;20466;-61
2022/01/23 09:31:00;;;;;;;21.37;17.33;;;;;;;;;;5052535;28;20442;-61
2022/01/23 09:33:26;;;;;;;21.57;16.90;;;;;;;;;;5052443;28;20465;-60
2022/01/23 09:35:53;;;;;;;18.60;16.67;;;;;;;;;;5052296;28;20243;-61
2022/01/23 09:38:20;;;;;;;19.73;17.57;;;;;;;;;;5052348;28;20457;-61
2022/01/23 09:40:46;;;;;;;18.87;16.47;;;;;;;;;;5052318;28;20441;-61
2022/01/23 09:43:15;;;;;;;20.40;17.47;;;;;;;;;;5052565;28;20208;-61
2022/01/23 09:45:45;;;;;;;20.93;16.57;;;;;;;;;;5052264;28;20441;-60
2022/01/23 09:48:12;;;;;;;17.40;15.70;;;;;;;;;;5052191;28;20220;-61
2022/01/23 09:50:38;;;;;;;20.13;16.30;;;;;;;;;;5052023;28;20442;-61
2022/01/23 09:53:06;;;;;;;20.03;15.80;;;;;;;;;;5051993;28;20465;-60
2022/01/23 09:55:33;;;;;;;18.60;16.43;;;;;;;;;;5052080;28;20449;-61
2022/01/23 09:58:00;;;;;;;22.83;16.87;;;;;;;;;;5052792;28;20466;-61
2022/01/23 10:00:27;;;;;;;18.90;16.83;;;;;;;;;;5053078;28;20203;-61
2022/01/23 10:02:54;;;;;;;18.50;15.40;;;;;;;;;;5051359;28;20463;-61
2022/01/23 10:05:20;;;;;;;18.97;15.20;;;;;;;;;;5053639;28;20683;-60
2022/01/23 10:07:46;;;;;;;17.27;15.10;;;;;;;;;;5052220;28;20202;-60
2022/01/23 10:10:19;;;;;;;15.57;13.23;;;;;;;;;;5052115;28;20207;-60
2022/01/23 10:12:46;;;;;;;13.43;12.13;;;;;;;;;;5051641;28;20297;-60
2022/01/23 10:15:12;;;;;;;13.63;11.17;;;;;;;;;;5051779;28;20478;-60
2022/01/23 10:17:39;;;;;;;14.80;11.57;;;;;;;;;;5051536;28;20219;-61
2022/01/23 10:20:06;;;;;;;13.47;11.03;;;;;;;;;;5051532;28;20652;-61
2022/01/23 10:22:33;;;;;;;12.10;10.90;;;;;;;;;;5051597;28;20443;-61
2022/01/23 10:25:04;;;;;;;13.10;10.20;;;;;;;;;;5051649;28;20200;-61
2022/01/23 10:27:50;;;;;;;11.83;9.70;;;;;;;;;;5051812;28;20431;-61
2022/01/23 10:30:19;;;;;;;10.70;8.87;;;;;;;;;;5051593;28;20211;-61
2022/01/23 10:32:55;;;;;;;10.20;9.13;;;;;;;;;;5051601;28;20200;-60
2022/01/23 10:35:21;;;;;;;13.33;8.60;;;;;;;;;;5051467;28;20509;-61
2022/01/23 10:37:49;;;;;;;9.50;8.57;;;;;;;;;;5051424;28;20203;-60
2022/01/23 10:40:25;;;;;;;11.17;8.57;;;;;;;;;;5051649;28;20204;-61
2022/01/23 10:46:34;;;;;;;11.23;8.43;;;;;;;;;;5051618;28;20283;-61
2022/01/23 10:48:35;;;;;;;9.00;7.23;;;;;;;;;;5055618;28;20480;-61
2022/01/23 10:51:31;;;;;;;9.80;7.43;;;;;;;;;;5055403;28;20584;-61
2022/01/23 10:54:13;;;;;;;7.93;7.00;;;;;;;;;;4974452;28;20202;-61
2022/01/23 10:56:53;;;;;;;10.47;6.93;;;;;;;;;;5045050;28;20575;-61
2022/01/23 10:59:21;;;;;;;8.30;6.40;;;;;;;;;;5055623;28;20199;-63
2022/01/23 11:01:58;;;;;;;8.77;7.03;;;;;;;;;;5055333;28;20223;-61
2022/01/23 11:04:24;;;;;;;8.43;6.07;;;;;;;;;;5055472;28;20216;-61
2022/01/23 11:06:52;;;;;;;7.90;5.93;;;;;;;;;;5055496;28;20199;-61
2022/01/23 11:09:18;;;;;;;8.63;5.97;;;;;;;;;;5055281;28;20330;-60
2022/01/23 11:11:48;;;;;;;7.97;6.13;;;;;;;;;;5055421;28;20726;-61
2022/01/23 11:19:47;;;;;;;8.17;5.83;;;;;;;;;;5055553;28;20219;-61
2022/01/23 11:22:17;;;;;;;7.30;6.00;;;;;;;;;;5055614;28;20207;-61
2022/01/23 11:24:45;;;;;;;7.07;6.37;;;;;;;;;;5055230;28;20254;-61
2022/01/23 11:27:12;;;;;;;8.70;5.57;;;;;;;;;;5037513;28;20291;-60
2022/01/23 11:29:51;;;;;;;9.70;6.67;;;;;;;;;;5055105;28;20220;-61
2022/01/23 11:32:19;;;;;;;9.47;6.40;;;;;;;;;;5055452;28;20231;-61
2022/01/23 11:34:46;;;;;;;7.03;5.87;;;;;;;;;;5055427;28;20703;-60
2022/01/23 11:37:13;;;;;;;7.40;5.80;;;;;;;;;;5055673;28;20254;-61
2022/01/23 11:39:50;;;;;;;8.97;6.20;;;;;;;;;;5055897;28;20189;-62
2022/01/23 11:50:44;;;;;;;7.47;5.30;;;;;;;;;;5055225;28;20281;-61
2022/01/23 11:56:24;;;;;;;5.83;4.63;;;;;;;;;;5055446;28;20207;-60
2022/01/23 11:58:52;;;;;;;6.37;5.20;;;;;;;;;;5054395;28;20197;-60
2022/01/23 12:01:18;;;;;;;5.40;4.30;;;;;;;;;;5055551;28;20203;-60
2022/01/23 12:03:59;;;;;;;4.97;4.47;;;;;;;;;;5055576;28;20216;-62
2022/01/23 12:06:27;;;;;;;6.77;4.63;;;;;;;;;;5054495;28;20656;-60
2022/01/23 12:09:02;;;;;;;7.90;4.40;;;;;;;;;;5055044;28;20638;-61
2022/01/23 12:11:40;;;;;;;4.90;4.43;;;;;;;;;;5054750;28;20246;-61
2022/01/23 12:17:06;;;;;;;4.50;4.10;;;;;;;;;;4973718;28;20266;-62
2022/01/23 12:19:33;;;;;;;7.20;4.33;;;;;;;;;;4973779;28;20203;-63
2022/01/23 12:22:20;;;;;;;6.73;4.20;;;;;;;;;;5009671;28;20197;-63
2022/01/23 12:24:48;;;;;;;6.53;4.50;;;;;;;;;;5054363;28;20208;-63
2022/01/23 12:27:17;;;;;;;9.63;4.27;;;;;;;;;;5052903;28;20196;-62
2022/01/23 12:29:43;;;;;;;5.17;4.50;;;;;;;;;;5054519;28;20252;-62
2022/01/23 12:32:16;;;;;;;5.40;4.90;;;;;;;;;;5054864;28;20228;-62
2022/01/23 12:34:46;;;;;;;6.00;4.70;;;;;;;;;;5054329;28;20211;-61
2022/01/23 12:37:13;;;;;;;7.37;4.90;;;;;;;;;;5054148;28;20200;-63
2022/01/23 12:39:39;;;;;;;9.60;4.93;;;;;;;;;;5054173;28;20677;-62
2022/01/23 12:42:05;;;;;;;8.30;5.03;;;;;;;;;;5054334;28;20251;-63
2022/01/23 12:44:33;;;;;;;6.37;4.90;;;;;;;;;;5054262;28;20226;-64
2022/01/23 12:47:00;;;;;;;5.77;5.17;;;;;;;;;;5054102;28;20200;-62
2022/01/23 12:49:26;;;;;;;7.33;5.53;;;;;;;;;;5054116;28;20624;-62
2022/01/23 12:51:54;;;;;;;6.13;5.53;;;;;;;;;;5053917;28;20212;-62
2022/01/23 12:54:31;;;;;;;6.93;5.23;;;;;;;;;;5054017;28;20231;-63
2022/01/23 12:57:05;;;;;;;11.33;5.60;;;;;;;;;;5053912;28;20207;-61
2022/01/23 12:59:34;;;;;;;6.23;5.20;;;;;;;;;;5053648;28;20188;-62
2022/01/23 13:02:04;;;;;;;6.70;5.87;;;;;;;;;;5053935;28;20204;-62
2022/01/23 13:04:31;;;;;;;6.43;5.13;;;;;;;;;;5054052;28;20297;-61
2022/01/23 13:07:04;;;;;;;6.17;5.33;;;;;;;;;;5053414;28;20200;-61
2022/01/23 13:09:44;;;;;;;7.47;5.83;;;;;;;;;;5053619;28;20634;-63
2022/01/23 13:15:10;;;;;;;9.77;7.17;;;;;;;;;;5053619;28;20718;-63
2022/01/23 13:31:38;;;;;;;6.63;4.80;;;;;;;;;;5053546;28;20196;-61
2022/01/23 13:34:04;;;;;;;6.00;4.70;;;;;;;;;;5053067;28;20200;-61
2022/01/23 13:36:30;;;;;;;7.40;4.60;;;;;;;;;;5053005;28;20279;-62
2022/01/23 13:38:56;;;;;;;7.70;4.13;;;;;;;;;;5052973;28;20208;-60
2022/01/23 13:41:35;;;;;;;5.23;4.13;;;;;;;;;;5053203;28;20227;-62
2022/01/23 13:52:38;;;;;;;6.63;4.27;;;;;;;;;;5052723;28;20221;-60
2022/01/23 13:58:18;;;;;;;4.77;3.90;;;;;;;;;;5052574;28;20276;-61
2022/01/23 14:00:37;;;;;;;4.57;3.50;;;;;;;;;;5052524;28;20207;-61
2022/01/23 14:03:04;;;;;;;8.50;3.87;;;;;;;;;;5052275;28;20216;-60
2022/01/23 14:05:31;;;;;;;6.83;4.77;;;;;;;;;;5052655;28;20232;-61
2022/01/23 14:08:01;;;;;;;6.47;4.10;;;;;;;;;;5052294;28;20203;-62
2022/01/23 14:10:29;;;;;;;4.40;3.83;;;;;;;;;;5052438;28;20573;-61
2022/01/23 14:13:05;;;;;;;7.93;4.63;;;;;;;;;;5052325;28;20240;-61
2022/01/23 14:15:31;;;;;;;5.53;5.03;;;;;;;;;;5052508;28;20203;-61
2022/01/23 14:17:58;;;;;;;6.63;4.40;;;;;;;;;;5051624;28;20667;-62
2022/01/23 14:20:24;;;;;;;6.33;4.80;;;;;;;;;;5052043;28;20210;-61
2022/01/23 14:22:52;;;;;;;5.23;4.80;;;;;;;;;;5051730;28;20200;-61
2022/01/23 14:25:20;;;;;;;6.03;4.87;;;;;;;;;;5052108;28;20224;-61
2022/01/23 14:27:48;;;;;;;8.07;4.87;;;;;;;;;;5052158;28;20204;-61
2022/01/23 14:30:20;;;;;;;6.87;5.37;;;;;;;;;;5052069;28;20230;-61
2022/01/23 14:32:49;;;;;;;7.43;5.17;;;;;;;;;;5052084;28;20200;-61
2022/01/23 14:35:17;;;;;;;8.23;5.53;;;;;;;;;;5052154;28;20270;-62
2022/01/23 14:37:44;;;;;;;9.73;5.57;;;;;;;;;;5052022;28;20563;-61
2022/01/23 14:40:11;;;;;;;7.10;4.93;;;;;;;;;;5052183;28;20199;-61
2022/01/23 14:42:38;;;;;;;7.50;5.60;;;;;;;;;;5052213;28;20262;-62
2022/01/23 14:45:04;;;;;;;8.57;6.57;;;;;;;;;;5052080;28;20218;-61
2022/01/23 14:47:35;;;;;;;6.53;5.93;;;;;;;;;;5052294;28;20275;-61
2022/01/23 14:50:02;;;;;;;9.17;6.43;;;;;;;;;;5051857;28;20727;-61
2022/01/23 14:52:28;;;;;;;12.03;7.20;;;;;;;;;;5052332;28;20187;-61
2022/01/23 14:54:56;;;;;;;6.87;6.27;;;;;;;;;;5051859;28;20618;-61
2022/01/23 14:57:25;;;;;;;7.23;6.53;;;;;;;;;;5052089;28;20208;-61
2022/01/23 14:59:51;;;;;;;9.07;6.97;;;;;;;;;;5052083;28;20192;-62
2022/01/23 15:02:17;;;;;;;8.63;7.13;;;;;;;;;;5051753;28;20191;-61
2022/01/23 15:04:46;;;;;;;7.50;6.80;;;;;;;;;;5052061;28;20656;-61
2022/01/23 15:07:16;;;;;;;8.77;7.00;;;;;;;;;;5052079;28;20288;-61
2022/01/23 15:09:43;;;;;;;10.67;6.97;;;;;;;;;;5051858;28;20235;-60
2022/01/23 15:12:10;;;;;;;9.83;7.50;;;;;;;;;;5051797;28;20282;-63
2022/01/23 15:14:36;;;;;;;9.13;7.33;;;;;;;;;;5051959;28;20200;-61
2022/01/23 15:17:02;;;;;;;8.60;7.20;;;;;;;;;;5049946;28;20194;-61
2022/01/23 15:19:28;;;;;;;9.03;6.93;;;;;;;;;;5052123;28;20283;-61
2022/01/23 15:21:55;;;;;;;8.10;7.00;;;;;;;;;;5051785;28;20200;-62
2022/01/23 15:24:21;;;;;;;7.90;6.40;;;;;;;;;;5051766;28;20657;-61
2022/01/23 15:26:47;;;;;;;8.37;6.63;;;;;;;;;;5051647;28;20199;-62
2022/01/23 15:29:14;;;;;;;7.07;6.37;;;;;;;;;;5052039;28;20281;-61
2022/01/23 15:31:40;;;;;;;8.17;6.00;;;;;;;;;;5055548;28;20260;-61
2022/01/23 15:34:06;;;;;;;8.17;5.73;;;;;;;;;;5055525;28;20267;-62
2022/01/23 15:36:32;;;;;;;9.27;6.53;;;;;;;;;;5055462;28;20246;-64
2022/01/23 15:39:01;;;;;;;7.87;6.00;;;;;;;;;;5055211;28;20203;-62
2022/01/23 15:41:27;;;;;;;7.30;6.13;;;;;;;;;;5055728;28;20285;-61
2022/01/23 15:43:53;;;;;;;9.33;5.93;;;;;;;;;;5055187;28;20287;-62
2022/01/23 15:46:19;;;;;;;7.67;5.30;;;;;;;;;;5055282;28;20196;-60
2022/01/23 15:48:46;;;;;;;7.93;4.87;;;;;;;;;;5055058;28;20223;-61
2022/01/23 15:51:12;;;;;;;5.53;3.93;;;;;;;;;;5055423;28;20208;-61
2022/01/23 15:53:38;;;;;;;6.00;4.17;;;;;;;;;;5055086;28;20200;-62
2022/01/23 15:56:05;;;;;;;6.17;4.10;;;;;;;;;;5054710;28;20212;-61
2022/01/23 15:58:32;;;;;;;6.97;4.00;;;;;;;;;;5055080;28;20200;-61
2022/01/23 16:00:58;;;;;;;7.33;4.13;;;;;;;;;;5055003;28;20209;-63
2022/01/23 16:03:26;;;;;;;5.73;4.00;;;;;;;;;;5054755;28;20711;-61
2022/01/23 16:05:52;;;;;;;7.37;4.10;;;;;;;;;;5054831;28;20279;-62
2022/01/23 16:08:18;;;;;;;10.00;4.40;;;;;;;;;;5054717;28;20211;-62
2022/01/23 16:10:44;;;;;;;5.33;4.03;;;;;;;;;;5054633;28;20223;-62
2022/01/23 16:13:12;;;;;;;5.17;4.63;;;;;;;;;;5054633;28;20200;-62
2022/01/23 16:15:38;;;;;;;5.53;4.30;;;;;;;;;;5054880;28;20204;-62
2022/01/23 16:18:04;;;;;;;5.13;4.60;;;;;;;;;;5054571;28;20204;-61
2022/01/23 16:20:30;;;;;;;5.57;4.77;;;;;;;;;;5054631;28;20247;-62
2022/01/23 16:22:56;;;;;;;7.97;4.83;;;;;;;;;;5054362;28;20270;-61
2022/01/23 16:25:22;;;;;;;6.23;4.97;;;;;;;;;;5054595;28;20676;-62
2022/01/23 16:27:48;;;;;;;7.70;4.90;;;;;;;;;;5054453;28;20246;-61
2022/01/23 16:30:16;;;;;;;6.50;5.03;;;;;;;;;;5054434;28;20232;-60
2022/01/23 16:32:42;;;;;;;6.37;4.90;;;;;;;;;;5054475;28;20238;-61
2022/01/23 16:35:09;;;;;;;6.20;5.27;;;;;;;;;;5054201;28;20204;-61
2022/01/23 16:37:35;;;;;;;6.60;4.60;;;;;;;;;;5053846;28;20730;-60
2022/01/23 16:40:01;;;;;;;4.67;4.27;;;;;;;;;;5054017;28;20211;-60
2022/01/23 16:42:27;;;;;;;5.37;4.30;;;;;;;;;;5053381;28;20204;-61
2022/01/23 16:44:54;;;;;;;5.17;3.80;;;;;;;;;;5054261;28;20196;-62
2022/01/23 16:47:21;;;;;;;3.53;3.10;;;;;;;;;;5054166;28;20437;-63
2022/01/23 16:49:47;;;;;;;8.50;3.83;;;;;;;;;;5053860;28;20243;-62
2022/01/23 16:52:13;;;;;;;4.20;3.80;;;;;;;;;;5054037;28;20196;-62
2022/01/23 16:54:40;;;;;;;4.60;3.50;;;;;;;;;;5053942;28;20196;-62
2022/01/23 16:57:06;;;;;;;3.90;3.20;;;;;;;;;;5053954;28;20227;-62
2022/01/23 16:59:32;;;;;;;4.23;3.67;;;;;;;;;;5053894;28;20660;-60
2022/01/23 17:01:58;;;;;;;5.47;3.10;;;;;;;;;;5053925;28;20656;-60
2022/01/23 17:04:26;;;;;;;4.47;3.20;;;;;;;;;;5053529;28;20227;-61
2022/01/23 17:06:52;;;;;;;5.63;3.17;;;;;;;;;;5053606;28;20204;-61
2022/01/23 17:09:19;;;;;;;4.70;3.20;;;;;;;;;;5053892;28;20235;-61
2022/01/23 17:11:45;;;;;;;4.33;3.40;;;;;;;;;;5053566;28;20228;-60
2022/01/23 17:14:11;;;;;;;5.90;3.07;;;;;;;;;;5053602;28;20202;-62
2022/01/23 17:16:37;;;;;;;4.57;3.17;;;;;;;;;;5053500;28;20200;-61
2022/01/23 17:19:03;;;;;;;3.90;3.50;;;;;;;;;;5053269;28;20200;-62
2022/01/23 17:21:31;;;;;;;4.37;2.90;;;;;;;;;;5053184;28;20202;-62
2022/01/23 17:23:57;;;;;;;3.30;3.00;;;;;;;;;;5053278;28;20200;-61
2022/01/23 17:26:26;;;;;;;3.90;3.50;;;;;;;;;;5053402;28;20698;-61
2022/01/23 17:28:52;;;;;;;5.63;3.23;;;;;;;;;;5053179;28;20224;-62
2022/01/23 17:31:18;;;;;;;3.30;3.00;;;;;;;;;;5053159;28;20552;-61
2022/01/23 17:33:44;;;;;;;4.03;3.63;;;;;;;;;;5053282;28;20262;-60
2022/01/23 17:36:10;;;;;;;8.73;3.73;;;;;;;;;;5051399;28;20257;-64
2022/01/23 17:38:38;;;;;;;3.03;2.80;;;;;;;;;;5053184;28;20203;-65
2022/01/23 17:41:04;;;;;;;3.33;3.03;;;;;;;;;;5053060;28;20446;-59